Time;durP1;ratioP1;P1;durP2;ratioP2;P2;SDS_P1;SDS_P2;PMS_P1;PMS_P2;Temp;Humidity;BMP_temperature;BMP_pressure;BME280_temperature;BME280_humidity;BME280_pressure;Samples;Min_cycle;Max_cycle;Signal;HPM_P1;HPM_P2
2021/03/30 00:01:38;;;;;;;59.05;29.37;;;;;;;9.03;82.73;100191.25;2124051;83;21602;-72
2021/03/30 00:04:40;;;;;;;62.80;30.50;;;;;;;9.10;82.52;100194.07;2126624;83;21314;-73
2021/03/30 00:07:42;;;;;;;58.70;29.77;;;;;;;9.15;82.94;100192.59;2117059;83;21301;-72
2021/03/30 00:10:45;;;;;;;62.27;30.62;;;;;;;9.09;82.96;100202.81;2122712;82;21325;-73
2021/03/30 00:13:48;;;;;;;54.83;29.20;;;;;;;9.07;82.89;100201.18;2123606;82;21745;-72
2021/03/30 00:16:50;;;;;;;53.50;28.15;;;;;;;9.03;83.04;100197.80;2136509;82;21751;-73
2021/03/30 00:19:52;;;;;;;52.60;27.40;;;;;;;9.06;83.25;100199.00;2112825;82;21286;-74
2021/03/30 00:22:54;;;;;;;61.33;28.05;;;;;;;9.04;83.14;100192.97;2126628;82;21869;-74
2021/03/30 00:25:56;;;;;;;57.20;27.90;;;;;;;9.09;82.79;100188.42;2136729;82;21332;-75
2021/03/30 00:28:58;;;;;;;60.90;30.17;;;;;;;9.14;83.38;100188.30;2093815;83;21756;-74
2021/03/30 00:32:01;;;;;;;64.67;30.97;;;;;;;9.11;83.11;100195.79;2109591;82;21745;-73
2021/03/30 00:35:03;;;;;;;61.37;30.65;;;;;;;9.13;82.74;100190.03;2100211;83;21403;-75
2021/03/30 00:38:07;;;;;;;60.05;29.92;;;;;;;9.18;82.58;100184.67;2109686;83;21323;-74
2021/03/30 00:41:08;;;;;;;63.50;30.60;;;;;;;9.23;82.66;100185.81;2144195;82;21297;-73
2021/03/30 00:44:10;;;;;;;54.13;29.42;;;;;;;9.28;82.47;100191.30;2119744;83;21792;-71
2021/03/30 00:47:12;;;;;;;58.55;30.35;;;;;;;9.34;82.18;100186.31;2122334;83;21734;-75
2021/03/30 00:50:14;;;;;;;58.38;31.17;;;;;;;9.36;82.35;100194.95;2115915;83;21321;-73
2021/03/30 00:53:16;;;;;;;65.55;31.45;;;;;;;9.46;82.34;100195.04;2112767;83;21682;-74
2021/03/30 00:56:18;;;;;;;58.35;30.35;;;;;;;9.49;82.05;100191.00;2107367;83;21854;-73
2021/03/30 00:59:20;;;;;;;59.30;29.90;;;;;;;9.51;81.75;100190.94;2113350;83;21333;-74
2021/03/30 01:02:23;;;;;;;;;;;;;;;9.51;81.91;100189.63;2126026;83;21317;-74
2021/03/30 01:05:25;;;;;;;60.37;30.07;;;;;;;9.52;81.86;100189.61;2128713;82;20261;-74
2021/03/30 01:08:27;;;;;;;52.73;28.73;;;;;;;9.54;81.97;100185.63;2144425;81;21596;-73
2021/03/30 01:11:29;;;;;;;55.17;27.70;;;;;;;9.53;81.90;100192.61;2145477;82;21302;-74
2021/03/30 01:14:31;;;;;;;54.42;28.85;;;;;;;9.53;81.92;100191.30;2145582;82;21200;-74
2021/03/30 01:17:33;;;;;;;55.03;26.62;;;;;;;9.49;81.96;100185.77;2146741;81;21735;-75
2021/03/30 01:20:35;;;;;;;51.25;27.48;;;;;;;9.48;81.99;100189.31;2140881;82;21295;-75
2021/03/30 01:23:39;;;;;;;56.98;27.48;;;;;;;9.52;82.10;100191.35;2139670;81;21689;-75
2021/03/30 01:26:41;;;;;;;51.00;26.70;;;;;;;9.60;81.71;100185.87;2157462;81;21771;-73
2021/03/30 01:29:43;;;;;;;54.53;26.50;;;;;;;9.63;81.72;100173.97;2136351;82;21322;-75
2021/03/30 01:32:45;;;;;;;53.30;25.95;;;;;;;9.65;81.71;100174.75;2139912;81;21297;-74
2021/03/30 01:35:47;;;;;;;54.20;25.45;;;;;;;9.61;81.50;100174.02;2108458;82;21295;-73
2021/03/30 01:38:49;;;;;;;52.15;25.30;;;;;;;9.56;81.59;100177.24;2143653;81;21288;-73
2021/03/30 01:41:51;;;;;;;53.35;26.50;;;;;;;9.53;81.76;100173.43;2147852;81;21295;-75
2021/03/30 01:44:53;;;;;;;52.83;26.35;;;;;;;9.54;82.19;100177.30;2154103;82;21291;-74
2021/03/30 01:47:55;;;;;;;56.30;26.80;;;;;;;9.45;82.65;100172.83;2134893;82;21304;-74
2021/03/30 01:50:57;;;;;;;51.23;24.82;;;;;;;9.37;82.23;100173.11;2147870;82;21272;-75
2021/03/30 01:53:59;;;;;;;52.48;25.85;;;;;;;9.33;82.82;100172.81;2138321;81;21299;-75
2021/03/30 01:57:01;;;;;;;51.75;25.25;;;;;;;9.30;82.60;100176.38;2138374;81;21343;-75
2021/03/30 02:00:03;;;;;;;53.60;26.00;;;;;;;9.31;82.67;100171.98;2137031;81;21306;-70
2021/03/30 02:03:05;;;;;;;51.70;25.43;;;;;;;9.33;82.66;100172.34;2133153;82;21272;-72
2021/03/30 02:06:07;;;;;;;51.05;25.45;;;;;;;9.34;82.55;100176.69;2132546;82;21157;-72
2021/03/30 02:09:11;;;;;;;53.87;26.10;;;;;;;9.35;82.69;100180.14;2167909;81;21304;-72
2021/03/30 02:12:15;;;;;;;48.90;25.65;;;;;;;9.28;82.65;100180.83;2150875;81;21307;-72
2021/03/30 02:15:17;;;;;;;50.03;24.02;;;;;;;9.37;82.95;100179.66;2160348;81;21172;-72
2021/03/30 02:18:19;;;;;;;49.05;24.12;;;;;;;9.48;82.72;100178.84;2143923;81;21275;-72
2021/03/30 02:21:21;;;;;;;48.23;23.77;;;;;;;9.59;82.12;100169.73;2138954;82;21331;-73
2021/03/30 02:24:23;;;;;;;54.93;25.90;;;;;;;9.53;82.09;100170.81;2155625;82;21302;-70
2021/03/30 02:27:25;;;;;;;49.98;25.32;;;;;;;9.53;81.88;100176.89;2137469;82;21319;-73
2021/03/30 02:30:27;;;;;;;53.28;26.02;;;;;;;9.56;81.98;100161.53;2143100;81;21745;-71
2021/03/30 02:33:30;;;;;;;54.98;27.45;;;;;;;9.56;81.85;100161.53;2149552;82;21632;-72
2021/03/30 02:36:32;;;;;;;53.65;27.27;;;;;;;9.57;81.90;100161.06;2146359;81;21752;-73
2021/03/30 02:39:35;;;;;;;51.05;24.85;;;;;;;9.54;81.82;100161.58;2143841;81;21312;-75
2021/03/30 02:42:37;;;;;;;50.58;24.55;;;;;;;9.53;82.03;100152.00;2150199;82;21323;-73
2021/03/30 02:45:39;;;;;;;46.58;23.87;;;;;;;9.55;81.92;100148.02;2139011;81;21298;-75
2021/03/30 02:48:41;;;;;;;47.73;24.65;;;;;;;9.56;82.01;100152.83;2135789;82;21322;-75
2021/03/30 02:51:43;;;;;;;55.08;27.48;;;;;;;9.60;82.17;100155.27;2140044;81;21811;-74
2021/03/30 02:54:45;;;;;;;50.63;24.75;;;;;;;9.66;82.05;100155.51;2153012;81;21752;-75
2021/03/30 02:57:47;;;;;;;51.60;25.90;;;;;;;9.71;82.00;100155.75;2153514;81;21712;-75
2021/03/30 03:00:49;;;;;;;54.30;25.30;;;;;;;9.74;81.76;100148.67;2151231;81;21739;-71
2021/03/30 03:03:52;;;;;;;51.08;25.97;;;;;;;9.71;81.65;100146.58;2142150;82;21311;-69
2021/03/30 03:06:54;;;;;;;51.40;25.10;;;;;;;9.62;81.62;100146.89;2145647;82;21731;-70
2021/03/30 03:09:56;;;;;;;;;;;;;;;9.61;81.89;100143.89;2128423;81;21169;-71
2021/03/30 03:12:59;;;;;;;51.55;26.12;;;;;;;9.59;82.18;100146.16;2127112;83;20520;-69
2021/03/30 03:16:01;;;;;;;49.30;26.55;;;;;;;9.59;82.10;100149.63;2108451;83;21172;-72
2021/03/30 03:19:03;;;;;;;56.48;27.93;;;;;;;9.59;81.99;100149.63;2103133;83;21743;-72
2021/03/30 03:22:05;;;;;;;52.15;27.95;;;;;;;9.53;81.71;100147.23;2119373;83;21752;-69
2021/03/30 03:25:06;;;;;;;51.50;27.05;;;;;;;9.51;82.08;100134.63;2110414;83;21772;-73
2021/03/30 03:28:09;;;;;;;51.58;26.77;;;;;;;9.51;82.19;100134.63;2124840;82;21725;-73
2021/03/30 03:31:11;;;;;;;50.70;25.70;;;;;;;9.50;82.24;100130.33;2121967;83;21309;-72
2021/03/30 03:34:12;;;;;;;49.60;25.88;;;;;;;9.48;82.30;100133.00;2116578;83;21381;-74
2021/03/30 03:37:14;;;;;;;52.20;26.73;;;;;;;9.43;82.20;100137.53;2116531;82;21351;-72
2021/03/30 03:40:16;;;;;;;58.13;29.12;;;;;;;9.41;82.37;100138.05;2091219;83;21309;-69
2021/03/30 03:43:18;;;;;;;54.93;28.25;;;;;;;9.44;82.39;100141.87;2119630;83;21289;-70
2021/03/30 03:46:21;;;;;;;50.25;26.95;;;;;;;9.38;82.60;100136.86;2117916;83;21588;-72
2021/03/30 03:49:25;;;;;;;54.88;28.10;;;;;;;9.39;82.80;100151.64;2121026;83;21313;-73
2021/03/30 03:52:27;;;;;;;53.00;28.45;;;;;;;9.31;83.24;100154.53;2124485;82;21184;-73
2021/03/30 03:55:29;;;;;;;57.98;30.10;;;;;;;9.26;83.49;100162.15;2117428;83;21417;-73
2021/03/30 03:58:31;;;;;;;53.98;28.50;;;;;;;9.19;83.97;100158.87;2109187;83;21188;-74
2021/03/30 04:01:33;;;;;;;55.88;29.25;;;;;;;9.10;84.13;100156.58;2134505;82;21502;-74
2021/03/30 04:04:35;;;;;;;67.20;38.28;;;;;;;9.05;84.29;100161.10;2145905;82;21341;-75
2021/03/30 04:07:37;;;;;;;65.92;39.38;;;;;;;8.99;85.08;100155.18;2137351;83;21301;-74
2021/03/30 04:10:39;;;;;;;70.52;41.68;;;;;;;8.97;84.58;100156.13;2123048;82;21318;-75
2021/03/30 04:13:41;;;;;;;65.75;38.38;;;;;;;9.01;84.53;100157.28;2113518;83;21628;-73
2021/03/30 04:16:43;;;;;;;62.60;32.45;;;;;;;9.11;84.25;100153.06;2117141;83;21293;-72
2021/03/30 04:19:45;;;;;;;60.43;31.52;;;;;;;9.16;84.18;100158.52;2117613;83;21313;-74
2021/03/30 04:22:51;;;;;;;61.60;31.30;;;;;;;9.16;84.51;100157.67;2131905;82;21301;-71
2021/03/30 04:25:51;;;;;;;58.78;31.07;;;;;;;9.11;84.44;100154.38;2127688;82;21707;-74
2021/03/30 04:28:53;;;;;;;61.63;30.43;;;;;;;9.14;84.60;100158.19;2121311;82;21322;-71
2021/03/30 04:31:55;;;;;;;56.83;30.05;;;;;;;9.15;84.48;100157.27;2118500;82;21318;-71
2021/03/30 04:34:57;;;;;;;59.88;29.45;;;;;;;9.11;84.67;100160.45;2115035;82;21310;-74
2021/03/30 04:38:00;;;;;;;;;;;;;;;9.10;84.75;100165.28;2116716;83;21338;-72
2021/03/30 04:41:02;;;;;;;58.75;31.17;;;;;;;9.12;85.09;100166.09;2111519;83;20508;-69
2021/03/30 04:44:04;;;;;;;59.38;31.62;;;;;;;9.07;85.07;100168.00;2128409;83;21305;-74
2021/03/30 04:47:06;;;;;;;57.27;31.87;;;;;;;9.06;85.16;100166.74;2133757;83;21312;-73
2021/03/30 04:50:08;;;;;;;55.58;31.02;;;;;;;9.01;85.41;100174.30;2095252;83;21314;-70
2021/03/30 04:53:10;;;;;;;61.28;31.02;;;;;;;8.94;86.00;100181.94;2126805;83;21305;-73
2021/03/30 04:56:12;;;;;;;59.23;32.23;;;;;;;8.84;85.77;100186.61;2088794;82;21296;-68
2021/03/30 04:59:14;;;;;;;60.83;32.70;;;;;;;8.81;86.04;100186.72;2104692;82;21322;-70
2021/03/30 05:02:16;;;;;;;64.95;35.73;;;;;;;8.87;85.91;100193.52;2122189;82;21392;-70
2021/03/30 05:05:18;;;;;;;61.53;33.33;;;;;;;8.98;85.90;100190.56;2129823;82;21305;-74
2021/03/30 05:08:20;;;;;;;70.95;34.83;;;;;;;9.10;85.72;100189.30;2117501;83;21325;-73
2021/03/30 05:11:22;;;;;;;65.57;33.28;;;;;;;9.19;85.80;100195.52;2113951;83;21330;-72
2021/03/30 05:14:24;;;;;;;63.52;33.53;;;;;;;9.19;85.88;100203.37;2116511;82;21315;-75
2021/03/30 05:17:27;;;;;;;66.47;33.55;;;;;;;9.18;85.72;100195.98;2120342;82;21329;-72
2021/03/30 05:20:29;;;;;;;65.35;31.65;;;;;;;9.26;85.59;100197.02;2097591;83;21322;-75
2021/03/30 05:23:31;;;;;;;64.10;33.48;;;;;;;9.31;85.47;100195.12;2122382;82;21737;-75
2021/03/30 05:26:33;;;;;;;63.15;33.40;;;;;;;9.33;85.56;100188.52;2122926;82;21753;-70
2021/03/30 05:29:43;;;;;;;64.62;35.63;;;;;;;9.32;85.94;100191.60;2123836;83;21737;-74
2021/03/30 05:32:45;;;;;;;65.37;35.08;;;;;;;9.27;86.32;100196.59;2131298;82;21345;-73
2021/03/30 05:35:47;;;;;;;61.02;31.48;;;;;;;9.30;85.60;100188.16;2119578;83;21315;-73
2021/03/30 05:38:49;;;;;;;55.73;29.18;;;;;;;9.35;85.70;100183.64;2121646;83;21186;-74
2021/03/30 05:41:51;;;;;;;58.52;28.73;;;;;;;9.41;85.41;100185.63;2099459;83;21339;-72
2021/03/30 05:44:53;;;;;;;58.48;29.70;;;;;;;9.45;85.40;100184.19;2128310;83;21314;-74
2021/03/30 05:47:55;;;;;;;58.00;28.00;;;;;;;9.50;85.31;100184.86;2111434;83;21219;-74
2021/03/30 05:50:57;;;;;;;54.63;28.90;;;;;;;9.55;85.95;100195.17;2109432;83;21164;-75
2021/03/30 05:53:59;;;;;;;56.98;28.15;;;;;;;9.52;85.90;100201.83;2115924;83;21731;-72
2021/03/30 05:57:01;;;;;;;52.98;28.52;;;;;;;9.42;86.84;100205.67;2118385;83;21222;-74
2021/03/30 06:00:04;;;;;;;53.08;27.55;;;;;;;9.41;87.15;100206.58;2089888;83;21308;-73
2021/03/30 06:03:06;;;;;;;;;;;;;;;9.34;87.07;100202.87;2127984;82;21337;-72
2021/03/30 06:06:08;;;;;;;58.10;30.50;;;;;;;9.36;87.58;100203.66;2118533;83;20266;-70
2021/03/30 06:09:10;;;;;;;58.80;30.97;;;;;;;9.44;87.45;100199.48;2128282;83;21726;-73
2021/03/30 06:12:12;;;;;;;59.77;31.42;;;;;;;9.56;87.70;100202.13;2103437;83;21726;-73
2021/03/30 06:15:14;;;;;;;58.40;31.75;;;;;;;9.59;87.22;100202.48;2125136;83;21793;-73
2021/03/30 06:18:16;;;;;;;56.37;30.50;;;;;;;9.56;87.53;100208.67;2117609;83;21306;-71
2021/03/30 06:21:18;;;;;;;54.48;29.23;;;;;;;9.56;87.96;100213.91;2124546;83;21306;-69
2021/03/30 06:24:20;;;;;;;49.73;27.22;;;;;;;9.56;88.02;100220.47;2127508;83;21290;-72
2021/03/30 06:27:23;;;;;;;56.70;29.60;;;;;;;9.53;88.44;100230.59;2123063;83;21286;-69
2021/03/30 06:30:25;;;;;;;53.68;29.87;;;;;;;9.51;88.03;100225.87;2130431;82;21305;-74
2021/03/30 06:33:27;;;;;;;55.65;30.48;;;;;;;9.55;87.93;100229.22;2104572;82;21187;-73
2021/03/30 06:36:29;;;;;;;58.48;30.17;;;;;;;9.64;87.97;100227.61;2129954;82;21185;-72
2021/03/30 06:39:31;;;;;;;61.88;31.37;;;;;;;9.66;87.32;100231.02;2120038;83;21306;-74
2021/03/30 06:42:40;;;;;;;58.70;29.02;;;;;;;9.72;87.34;100239.12;2123585;83;21309;-71
2021/03/30 06:45:41;;;;;;;56.25;28.73;;;;;;;9.73;87.55;100233.45;2127759;82;21749;-71
2021/03/30 06:48:43;;;;;;;55.05;29.63;;;;;;;9.74;87.45;100243.00;2116203;82;21741;-71
2021/03/30 06:51:45;;;;;;;55.85;29.15;;;;;;;9.75;87.35;100248.64;2114148;82;21750;-68
2021/03/30 06:54:48;;;;;;;54.23;29.12;;;;;;;9.85;87.44;100248.72;2120055;83;21286;-68
2021/03/30 06:57:50;;;;;;;59.73;31.20;;;;;;;9.87;87.34;100246.45;2122166;83;21297;-70
2021/03/30 07:00:52;;;;;;;55.43;30.12;;;;;;;9.96;87.42;100245.27;2116522;83;21309;-68
2021/03/30 07:03:54;;;;;;;62.13;35.83;;;;;;;10.16;87.47;100231.91;2125622;83;21400;-69
2021/03/30 07:06:56;;;;;;;70.55;39.25;;;;;;;10.35;87.01;100231.62;2126011;82;21301;-70
2021/03/30 07:09:58;;;;;;;67.62;37.05;;;;;;;10.48;86.77;100242.52;2109021;83;21322;-74
2021/03/30 07:13:00;;;;;;;60.48;30.72;;;;;;;10.47;86.36;100242.10;2111968;83;21285;-71
2021/03/30 07:16:03;;;;;;;62.13;32.08;;;;;;;10.51;86.12;100245.02;2118874;81;21305;-71
2021/03/30 07:19:05;;;;;;;59.13;30.20;;;;;;;10.58;86.17;100228.13;2134148;82;21337;-67
2021/03/30 07:22:07;;;;;;;55.45;31.30;;;;;;;10.70;85.68;100237.31;2113123;83;21299;-70
2021/03/30 07:25:09;;;;;;;59.95;32.38;;;;;;;10.75;85.42;100231.88;2199660;80;21268;-68
2021/03/30 07:28:14;;;;;;;76.17;42.60;;;;;;;10.72;85.35;100236.78;2194173;80;21280;-73
2021/03/30 07:31:16;;;;;;;75.65;41.58;;;;;;;10.74;85.67;100234.94;2201136;79;21213;-69
2021/03/30 07:34:18;;;;;;;66.33;34.65;;;;;;;10.80;85.75;100236.47;2207032;80;21271;-73
2021/03/30 07:37:20;;;;;;;64.10;34.20;;;;;;;10.86;85.42;100242.81;2197061;79;21276;-72
2021/03/30 07:40:22;;;;;;;;;;;;;;;10.92;85.50;100245.18;2199022;80;21641;-73
2021/03/30 07:43:24;;;;;;;64.93;34.33;;;;;;;11.11;85.33;100244.91;2186943;80;20232;-73
2021/03/30 07:46:26;;;;;;;52.48;28.20;;;;;;;11.22;85.11;100249.24;2194747;80;21296;-73
2021/03/30 07:49:30;;;;;;;69.35;37.08;;;;;;;11.24;84.30;100243.48;2193295;80;21233;-74
2021/03/30 07:52:32;;;;;;;69.55;35.40;;;;;;;11.30;84.42;100244.53;2202348;80;21170;-74
2021/03/30 07:55:34;;;;;;;95.28;49.60;;;;;;;11.41;84.08;100241.48;2186214;80;21301;-68
2021/03/30 07:58:36;;;;;;;87.15;44.53;;;;;;;11.55;84.17;100233.86;2185292;80;21288;-68
2021/03/30 08:01:38;;;;;;;57.27;30.55;;;;;;;11.79;83.97;100229.77;2193340;80;21753;-69
2021/03/30 08:04:40;;;;;;;91.15;41.37;;;;;;;12.00;83.64;100234.58;2171573;80;21755;-71
2021/03/30 08:07:42;;;;;;;60.95;30.90;;;;;;;12.18;83.29;100225.47;2193279;80;21736;-69
2021/03/30 08:10:44;;;;;;;55.17;28.67;;;;;;;12.33;82.88;100228.73;2201760;80;21339;-72
2021/03/30 08:13:47;;;;;;;50.12;25.80;;;;;;;12.47;82.10;100234.67;2199723;80;21835;-74
2021/03/30 08:16:49;;;;;;;46.95;25.37;;;;;;;12.49;81.70;100240.70;2207630;80;21285;-68
2021/03/30 08:19:51;;;;;;;;;;;;;;;12.43;80.21;100248.89;2192936;80;21285;-68
2021/03/30 08:22:53;;;;;;;47.40;25.07;;;;;;;12.37;79.55;100242.58;2206645;80;20214;-71
2021/03/30 08:25:55;;;;;;;48.25;26.80;;;;;;;12.36;80.35;100245.68;2187809;80;21740;-72
2021/03/30 08:28:57;;;;;;;49.33;25.57;;;;;;;12.41;79.96;100246.78;2199596;80;21161;-69
2021/03/30 08:31:59;;;;;;;53.73;26.27;;;;;;;12.39;79.22;100249.95;2184101;80;21285;-70
2021/03/30 08:35:01;;;;;;;50.75;26.70;;;;;;;12.30;79.13;100253.86;2200637;80;21724;-72
2021/03/30 08:38:05;;;;;;;47.43;25.48;;;;;;;12.30;80.75;100250.76;2192330;80;21605;-71
2021/03/30 08:41:07;;;;;;;51.42;27.98;;;;;;;12.32;80.07;100252.00;2202335;80;21168;-69
2021/03/30 08:44:10;;;;;;;51.50;24.40;;;;;;;12.36;80.06;100239.58;2195606;80;21283;-68
2021/03/30 08:47:12;;;;;;;50.63;26.17;;;;;;;12.41;79.24;100240.20;2203203;80;21182;-71
2021/03/30 08:50:14;;;;;;;51.60;25.70;;;;;;;12.35;79.56;100233.44;2197375;80;21304;-73
2021/03/30 08:53:16;;;;;;;;;;;;;;;12.30;78.69;100244.66;2189732;80;21744;-73
2021/03/30 08:56:19;;;;;;;50.17;25.95;;;;;;;12.19;79.26;100245.13;2184276;80;20124;-72
2021/03/30 08:59:21;;;;;;;52.55;26.20;;;;;;;12.23;78.84;100248.48;2187460;80;21287;-73
2021/03/30 09:02:23;;;;;;;50.45;26.25;;;;;;;12.29;79.08;100246.88;2188738;80;21720;-75
2021/03/30 09:05:25;;;;;;;47.67;25.25;;;;;;;12.40;79.32;100251.67;2188995;80;21406;-75
2021/03/30 09:08:28;;;;;;;;;;;;;;;12.43;78.27;100253.69;2193581;80;21149;-75
2021/03/30 09:11:35;;;;;;;50.52;24.80;;;;;;;12.43;78.39;100260.27;2163312;80;20414;-72
2021/03/30 09:14:36;;;;;;;50.58;24.95;;;;;;;12.29;78.70;100269.25;2192570;80;21531;-72
2021/03/30 09:17:38;;;;;;;51.58;25.65;;;;;;;12.23;78.18;100272.16;2197866;80;21281;-71
2021/03/30 09:20:40;;;;;;;49.05;24.63;;;;;;;12.34;78.86;100265.95;2188446;80;21305;-74
2021/03/30 09:23:43;;;;;;;50.45;26.15;;;;;;;12.43;78.07;100261.58;2191021;80;21287;-72
2021/03/30 09:26:45;;;;;;;51.50;26.77;;;;;;;12.63;79.06;100258.50;2191140;80;21303;-70
2021/03/30 09:29:48;;;;;;;44.90;23.83;;;;;;;13.05;79.45;100263.11;2195894;80;21608;-72
2021/03/30 09:32:50;;;;;;;48.83;26.20;;;;;;;13.36;75.00;100258.98;2195674;80;21169;-71
2021/03/30 09:35:52;;;;;;;;;;;;;;;13.30;75.58;100269.34;2204797;80;21602;-72
2021/03/30 09:38:56;;;;;;;52.03;26.85;;;;;;;13.43;75.78;100265.22;2197512;80;20171;-73
2021/03/30 09:41:58;;;;;;;49.15;25.55;;;;;;;13.61;75.49;100269.17;2197193;80;21759;-74
2021/03/30 09:45:00;;;;;;;48.42;25.97;;;;;;;13.79;75.81;100265.59;2195306;79;21811;-72
2021/03/30 09:48:02;;;;;;;46.70;23.60;;;;;;;13.98;75.23;100265.48;2207800;80;21291;-73
2021/03/30 09:51:04;;;;;;;51.90;25.12;;;;;;;14.03;73.36;100268.72;2191778;79;21325;-73
2021/03/30 09:54:08;;;;;;;44.48;24.40;;;;;;;14.19;73.93;100264.83;2194176;79;21293;-74
2021/03/30 09:57:10;;;;;;;45.48;23.95;;;;;;;14.28;73.10;100259.97;2211919;80;21305;-74
2021/03/30 10:00:12;;;;;;;51.68;24.90;;;;;;;14.33;73.07;100256.16;2208492;80;21358;-73
2021/03/30 10:03:15;;;;;;;47.17;23.15;;;;;;;14.47;74.60;100255.89;2197903;80;21181;-74
2021/03/30 10:06:20;;;;;;;47.45;26.50;;;;;;;14.55;72.73;100256.30;2181277;80;21284;-69
2021/03/30 10:09:22;;;;;;;48.08;24.23;;;;;;;14.71;71.69;100257.21;2190951;80;21152;-70
2021/03/30 10:12:27;;;;;;;;;;;;;;;14.83;72.38;100258.31;2202750;80;21303;-72
2021/03/30 10:15:28;;;;;;;47.45;24.37;;;;;;;15.06;72.36;100246.44;2200780;79;20128;-73
2021/03/30 10:18:31;;;;;;;43.63;23.18;;;;;;;15.26;71.06;100251.06;2188362;80;21768;-73
2021/03/30 10:21:33;;;;;;;42.67;23.32;;;;;;;15.57;70.34;100256.73;2197545;80;21138;-72
2021/03/30 10:24:35;;;;;;;43.08;22.48;;;;;;;15.79;69.93;100256.81;2183961;80;21323;-73
2021/03/30 10:27:38;;;;;;;42.67;22.42;;;;;;;15.85;69.71;100256.91;2194200;79;21276;-69
2021/03/30 10:30:42;;;;;;;43.52;22.62;;;;;;;15.79;68.66;100257.27;2177929;80;21288;-70
2021/03/30 10:33:45;;;;;;;40.95;22.55;;;;;;;15.67;69.75;100253.05;2190823;80;21740;-68
2021/03/30 10:36:47;;;;;;;48.75;25.37;;;;;;;15.62;70.10;100252.48;2194765;80;21711;-70
2021/03/30 10:39:49;;;;;;;43.75;23.32;;;;;;;15.74;69.78;100249.58;2185677;80;21304;-67
2021/03/30 10:42:51;;;;;;;46.23;23.05;;;;;;;15.92;70.56;100241.88;2186168;80;21303;-69
2021/03/30 10:45:53;;;;;;;42.30;23.95;;;;;;;16.20;69.68;100239.34;2200636;80;21669;-71
2021/03/30 10:48:55;;;;;;;42.58;21.75;;;;;;;16.76;68.99;100233.56;2185292;80;21307;-71
2021/03/30 10:51:57;;;;;;;41.73;21.77;;;;;;;17.08;67.43;100228.48;2187429;80;21717;-72
2021/03/30 10:55:00;;;;;;;41.37;20.12;;;;;;;16.95;66.59;100231.08;2190343;80;21209;-72
2021/03/30 10:58:08;;;;;;;42.38;22.70;;;;;;;16.84;65.99;100230.44;2188208;80;21166;-72
2021/03/30 11:01:07;;;;;;;46.85;23.73;;;;;;;17.19;67.74;100222.48;2189729;80;21712;-71
2021/03/30 11:04:09;;;;;;;41.13;23.20;;;;;;;17.61;67.04;100221.40;2190972;80;21166;-68
2021/03/30 11:07:11;;;;;;;40.25;23.07;;;;;;;18.00;66.47;100218.30;2177934;80;21288;-69
2021/03/30 11:10:14;;;;;;;39.15;21.48;;;;;;;18.17;64.67;100214.92;2187463;80;21150;-70
2021/03/30 11:13:16;;;;;;;;;;;;;;;18.00;60.79;100212.12;2199738;80;21724;-72
2021/03/30 11:16:18;;;;;;;39.90;21.82;;;;;;;17.72;63.74;100216.67;2183474;80;20537;-71
2021/03/30 11:19:20;;;;;;;41.70;22.02;;;;;;;17.55;63.95;100214.33;2199742;80;21293;-72
2021/03/30 11:22:22;;;;;;;39.80;20.60;;;;;;;17.31;63.81;100209.71;2192738;79;21316;-72
2021/03/30 11:25:24;;;;;;;41.10;19.82;;;;;;;17.18;64.34;100212.33;2184221;78;21117;-73
2021/03/30 11:28:31;;;;;;;;;;;;;;;17.40;64.49;100201.16;2184826;80;21320;-73
2021/03/30 11:31:47;;;;;;;40.12;20.25;;;;;;;17.65;61.03;100210.92;2164429;81;20399;-71
2021/03/30 11:34:46;;;;;;;41.05;20.92;;;;;;;17.48;62.18;100204.60;2188501;80;21728;-73
2021/03/30 11:38:04;;;;;;;35.98;18.30;;;;;;;17.70;62.79;100195.17;2175734;81;21165;-69
2021/03/30 11:40:59;;;;;;;37.48;19.32;;;;;;;18.05;60.50;100197.22;2182778;81;21273;-69
2021/03/30 11:44:02;;;;;;;36.83;19.17;;;;;;;18.28;60.34;100195.58;2193925;79;21299;-73
2021/03/30 11:47:04;;;;;;;38.10;20.45;;;;;;;18.67;61.15;100183.86;2176265;80;21218;-72
2021/03/30 11:50:06;;;;;;;34.63;18.95;;;;;;;18.89;60.18;100182.30;2188609;80;21308;-67
2021/03/30 11:53:08;;;;;;;33.83;18.00;;;;;;;18.81;57.61;100188.66;2197204;80;21189;-67
2021/03/30 11:56:10;;;;;;;34.45;17.55;;;;;;;18.16;59.24;100188.02;2173471;80;21759;-67
2021/03/30 11:59:12;;;;;;;33.85;16.85;;;;;;;17.61;59.56;100204.16;2198484;80;21748;-72
2021/03/30 12:02:14;;;;;;;35.55;16.42;;;;;;;17.29;60.51;100212.47;2204354;80;21827;-71
2021/03/30 12:05:18;;;;;;;31.57;16.02;;;;;;;17.09;60.93;100188.61;2194868;81;21275;-69
2021/03/30 12:08:22;;;;;;;32.25;15.50;;;;;;;17.07;61.80;100186.55;2195018;80;21296;-71
2021/03/30 12:11:24;;;;;;;32.55;15.88;;;;;;;17.09;61.00;100182.48;2185273;80;21712;-72
2021/03/30 12:14:26;;;;;;;;;;;;;;;17.08;61.89;100186.06;2199068;80;21748;-73
2021/03/30 12:17:28;;;;;;;28.00;13.08;;;;;;;17.05;60.64;100179.20;2194412;80;20128;-68
2021/03/30 12:20:30;;;;;;;30.17;13.80;;;;;;;16.92;61.05;100188.43;2196176;79;21312;-70
2021/03/30 12:23:32;;;;;;;30.00;13.58;;;;;;;16.91;62.47;100184.07;2188819;80;21288;-71
2021/03/30 12:26:34;;;;;;;33.08;13.83;;;;;;;16.92;62.20;100179.16;2179458;80;21593;-73
2021/03/30 12:29:37;;;;;;;31.23;13.08;;;;;;;17.10;62.24;100177.07;2169044;81;21736;-68
2021/03/30 12:32:39;;;;;;;32.40;13.75;;;;;;;17.30;60.85;100170.42;2186231;80;21713;-71
2021/03/30 12:35:41;;;;;;;;;;;;;;;17.55;60.24;100167.42;2201506;80;21731;-69
2021/03/30 12:38:43;;;;;;;33.13;13.50;;;;;;;17.80;58.83;100156.42;2198899;80;20235;-74
2021/03/30 12:41:45;;;;;;;30.92;12.30;;;;;;;17.61;59.68;100161.70;2176816;80;21349;-73
2021/03/30 12:44:47;;;;;;;;;;;;;;;17.38;57.92;100153.14;2198426;80;21299;-73
2021/03/30 12:47:49;;;;;;;30.52;12.40;;;;;;;17.21;60.20;100145.87;2186467;80;21787;-72
2021/03/30 12:50:52;;;;;;;29.52;11.73;;;;;;;17.07;60.00;100147.28;2193253;80;21748;-74
2021/03/30 12:53:56;;;;;;;28.00;12.37;;;;;;;16.92;59.85;100153.11;2186132;79;21291;-73
2021/03/30 12:56:58;;;;;;;28.85;12.10;;;;;;;16.70;58.82;100153.17;2188882;79;21166;-73
2021/03/30 13:00:00;;;;;;;26.77;11.93;;;;;;;16.69;60.33;100148.81;2187431;80;21859;-69
2021/03/30 13:03:02;;;;;;;30.45;11.50;;;;;;;16.69;59.00;100156.77;2188978;80;21717;-73
2021/03/30 13:06:04;;;;;;;32.83;12.40;;;;;;;16.63;59.43;100150.55;2193056;79;21284;-74
2021/03/30 13:09:06;;;;;;;29.23;11.60;;;;;;;16.63;59.46;100132.01;2187040;80;21300;-71
2021/03/30 13:12:08;;;;;;;29.42;12.58;;;;;;;16.60;58.91;100141.48;2198205;79;21280;-70
2021/03/30 13:15:10;;;;;;;27.58;10.93;;;;;;;16.71;59.55;100131.52;2202820;80;21288;-73
2021/03/30 13:18:12;;;;;;;29.12;12.07;;;;;;;16.82;58.77;100134.77;2191437;80;21818;-72
2021/03/30 13:21:14;;;;;;;30.27;13.03;;;;;;;16.93;59.66;100138.92;2181522;81;21276;-72
2021/03/30 13:24:16;;;;;;;28.23;11.55;;;;;;;17.14;59.56;100126.88;2185097;80;21142;-70
2021/03/30 13:27:19;;;;;;;29.20;12.18;;;;;;;17.38;58.19;100122.16;2188063;80;21162;-74
2021/03/30 13:30:21;;;;;;;26.77;11.03;;;;;;;17.51;57.67;100119.51;2205821;80;21274;-73
2021/03/30 13:33:23;;;;;;;28.02;11.60;;;;;;;17.52;58.69;100130.50;2187737;80;21288;-73
2021/03/30 13:36:25;;;;;;;28.23;12.28;;;;;;;17.54;58.41;100135.23;2190108;80;21348;-72
2021/03/30 13:39:27;;;;;;;27.82;11.97;;;;;;;17.46;59.12;100123.81;2190095;80;21335;-73
2021/03/30 13:42:29;;;;;;;25.90;10.95;;;;;;;17.51;58.16;100131.45;2181724;80;21349;-73
2021/03/30 13:45:32;;;;;;;;;;;;;;;17.64;59.18;100124.81;2183279;80;21327;-73
2021/03/30 13:48:34;;;;;;;27.80;12.10;;;;;;;17.78;56.16;100127.83;2195188;80;20266;-74
2021/03/30 13:51:37;;;;;;;30.30;11.50;;;;;;;17.73;57.47;100120.20;2199255;80;21706;-71
2021/03/30 13:54:39;;;;;;;;;;;;;;;17.76;56.57;100126.61;2192560;80;21745;-72
2021/03/30 13:57:43;;;;;;;27.80;11.83;;;;;;;18.19;56.85;100120.09;2188561;80;20494;-72
2021/03/30 14:00:45;;;;;;;25.97;11.33;;;;;;;18.10;56.10;100132.68;2194937;80;21268;-72